F/V Manathia — FGSL — position and weather

sailwx.info

Track history (hours):
 
Tides and Currents Weather Stations Pressure Air Temp Water Temp Dewpoint Dewpoint Depression Visibility Wind Speed Wind Dir Waves Ship Positions

F/V Manathia

Last reported at 2016-Dec-09 13:21 UTC. Time now 2016-Dec-11 04:16 UTC.
Position N 47°46' W 004°18'.

Length 16 m.

Type: Fishing. MMSI: 228258000.

Date/timePositionNaut miles runAvg speedWind from/ knotsBaromVisibWave heightAir tempDewpointWater temp
2016-Dec-09 13:21N 47°46' W 004°18'7 8.6
2016-Dec-09 12:33N 47°40' W 004°13'8 8.4
2016-Dec-09 11:33N 47°33' W 004°08'4 3.6
2016-Dec-09 10:33N 47°31' W 004°04'3 2.6
2016-Dec-09 09:31N 47°28' W 004°04'3 3.2
2016-Dec-09 08:28N 47°28' W 004°09'2 2.1
2016-Dec-09 07:33N 47°30' W 004°07'3 3.3
2016-Dec-09 06:33N 47°29' W 004°02'3 2.8
2016-Dec-09 05:33N 47°28' W 004°06'3 2.7
2016-Dec-09 04:33N 47°29' W 004°10'3 2.7
2016-Dec-09 03:33N 47°30' W 004°06'2 2.3
2016-Dec-09 02:33N 47°28' W 004°08'3 2.6
2016-Dec-09 01:33N 47°28' W 004°11'3 2.7
2016-Dec-09 00:33N 47°30' W 004°09'3 2.9
2016-Dec-08 23:33N 47°29' W 004°05'3 3.3
2016-Dec-08 22:33N 47°28' W 004°09'4 3.0
2016-Dec-08 21:08N 47°31' W 004°14'35 7.2
2016-Dec-08 16:16N 47°39' W 005°04'2 3.0
2016-Dec-08 15:34N 47°37' W 005°03'3 3.4
2016-Dec-08 14:33N 47°36' W 004°58'6 1.3
2016-Dec-08 10:23N 47°39' W 005°04'3 3.4
2016-Dec-08 09:32N 47°37' W 005°05'3 3.5
2016-Dec-08 08:33N 47°33' W 005°06'4 3.6
2016-Dec-08 07:33N 47°30' W 005°07'4 3.6
2016-Dec-08 06:33N 47°27' W 005°10'2 2.5
2016-Dec-08 05:33N 47°25' W 005°07'4 3.6
2016-Dec-08 04:33N 47°21' W 005°07'3 2.7
2016-Dec-08 03:33N 47°22' W 005°11'3 3.2
2016-Dec-08 02:34N 47°26' W 005°11'4 3.5
2016-Dec-08 01:33N 47°28' W 005°07'5 2.2
2016-Dec-07 23:28N 47°32' W 005°11'3 3.0
2016-Dec-07 22:30N 47°34' W 005°08'3 3.3
2016-Dec-07 21:31N 47°37' W 005°07'5 2.1
2016-Dec-07 19:18N 47°41' W 005°11'3 3.5
2016-Dec-07 18:33N 47°40' W 005°07'3 1.4
2016-Dec-07 16:05N 47°42' W 005°11'1 2.4
2016-Dec-07 15:34N 47°41' W 005°10'4 3.6
2016-Dec-07 14:33N 47°39' W 005°06'3 3.4
2016-Dec-07 13:34N 47°37' W 005°02'4 3.5
2016-Dec-07 12:33N 47°35' W 004°58'3 2.8
2016-Dec-07 11:33N 47°32' W 004°56'3 2.8
2016-Dec-07 10:33N 47°30' W 004°53'3 3.3
2016-Dec-07 09:33N 47°30' W 004°48'4 3.3
2016-Dec-07 08:27N 47°31' W 004°43'3 3.4
2016-Dec-07 07:33N 47°32' W 004°39'4 3.8
2016-Dec-07 06:34N 47°35' W 004°35'10 7.7
2016-Dec-07 05:17N 47°42' W 004°26'8 4.1
2016-Dec-07 03:19N 47°48' W 004°17'  
2016-Dec-02 14:33N 47°48' W 004°17'6 5.9
2016-Dec-02 13:33N 47°42' W 004°16'9 8.7
2016-Dec-02 12:33N 47°33' W 004°13'2 2.4
2016-Dec-02 11:33N 47°31' W 004°15'4 3.7
2016-Dec-02 10:33N 47°29' W 004°11'1 1.5
2016-Dec-02 09:33N 47°27' W 004°11'3 2.7
2016-Dec-02 08:33N 47°30' W 004°10'4 3.5
2016-Dec-02 07:33N 47°30' W 004°05'3 2.8
2016-Dec-02 06:33N 47°28' W 004°08'3 2.1
2016-Dec-02 05:21N 47°29' W 004°12'1 1.9
2016-Dec-02 04:33N 47°30' W 004°10'2 2.4
2016-Dec-02 03:33N 47°27' W 004°11'3 2.7
2016-Dec-02 02:32N 47°30' W 004°11'3 3.4
2016-Dec-02 01:33N 47°30' W 004°06'2 2.3
2016-Dec-02 00:33N 47°28' W 004°08'1 1.2
2016-Dec-01 23:33N 47°28' W 004°09'2 2.0
2016-Dec-01 22:29N 47°29' W 004°12'3 2.8
2016-Dec-01 21:33N 47°30' W 004°08'2 2.3
2016-Dec-01 20:33N 47°29' W 004°06'1 0.1
2016-Dec-01 06:20N 47°30' W 004°06'18 1.0
2016-Nov-30 12:29N 47°46' W 004°19'28 4.4
2016-Nov-30 06:09N 47°30' W 004°53'2 2.4
2016-Nov-30 05:23N 47°31' W 004°55'  
Track history (hours):
 
Tides and Currents Weather Stations Pressure Air Temp Water Temp Dewpoint Dewpoint Depression Visibility Wind Speed Wind Dir Waves Ship Positions

F/V Manathia

Last reported at 2016-Dec-09 13:21 UTC. Time now 2016-Dec-11 04:16 UTC.
Position N 47°46' W 004°18'.

Length 16 m.

Type: Fishing. MMSI: 228258000.

Date/timePositionNaut miles runAvg speedWind from/ knotsBaromVisibWave heightAir tempDewpointWater temp
2016-Dec-09 13:21N 47°46' W 004°18'7 8.6
2016-Dec-09 12:33N 47°40' W 004°13'8 8.4
2016-Dec-09 11:33N 47°33' W 004°08'4 3.6
2016-Dec-09 10:33N 47°31' W 004°04'3 2.6
2016-Dec-09 09:31N 47°28' W 004°04'3 3.2
2016-Dec-09 08:28N 47°28' W 004°09'2 2.1
2016-Dec-09 07:33N 47°30' W 004°07'3 3.3
2016-Dec-09 06:33N 47°29' W 004°02'3 2.8
2016-Dec-09 05:33N 47°28' W 004°06'3 2.7
2016-Dec-09 04:33N 47°29' W 004°10'3 2.7
2016-Dec-09 03:33N 47°30' W 004°06'2 2.3
2016-Dec-09 02:33N 47°28' W 004°08'3 2.6
2016-Dec-09 01:33N 47°28' W 004°11'3 2.7
2016-Dec-09 00:33N 47°30' W 004°09'3 2.9
2016-Dec-08 23:33N 47°29' W 004°05'3 3.3
2016-Dec-08 22:33N 47°28' W 004°09'4 3.0
2016-Dec-08 21:08N 47°31' W 004°14'35 7.2
2016-Dec-08 16:16N 47°39' W 005°04'2 3.0
2016-Dec-08 15:34N 47°37' W 005°03'3 3.4
2016-Dec-08 14:33N 47°36' W 004°58'6 1.3
2016-Dec-08 10:23N 47°39' W 005°04'3 3.4
2016-Dec-08 09:32N 47°37' W 005°05'3 3.5
2016-Dec-08 08:33N 47°33' W 005°06'4 3.6
2016-Dec-08 07:33N 47°30' W 005°07'4 3.6
2016-Dec-08 06:33N 47°27' W 005°10'2 2.5
2016-Dec-08 05:33N 47°25' W 005°07'4 3.6
2016-Dec-08 04:33N 47°21' W 005°07'3 2.7
2016-Dec-08 03:33N 47°22' W 005°11'3 3.2
2016-Dec-08 02:34N 47°26' W 005°11'4 3.5
2016-Dec-08 01:33N 47°28' W 005°07'5 2.2
2016-Dec-07 23:28N 47°32' W 005°11'3 3.0
2016-Dec-07 22:30N 47°34' W 005°08'3 3.3
2016-Dec-07 21:31N 47°37' W 005°07'5 2.1
2016-Dec-07 19:18N 47°41' W 005°11'3 3.5
2016-Dec-07 18:33N 47°40' W 005°07'3 1.4
2016-Dec-07 16:05N 47°42' W 005°11'1 2.4
2016-Dec-07 15:34N 47°41' W 005°10'4 3.6
2016-Dec-07 14:33N 47°39' W 005°06'3 3.4
2016-Dec-07 13:34N 47°37' W 005°02'4 3.5
2016-Dec-07 12:33N 47°35' W 004°58'3 2.8
2016-Dec-07 11:33N 47°32' W 004°56'3 2.8
2016-Dec-07 10:33N 47°30' W 004°53'3 3.3
2016-Dec-07 09:33N 47°30' W 004°48'4 3.3
2016-Dec-07 08:27N 47°31' W 004°43'3 3.4
2016-Dec-07 07:33N 47°32' W 004°39'4 3.8
2016-Dec-07 06:34N 47°35' W 004°35'10 7.7
2016-Dec-07 05:17N 47°42' W 004°26'8 4.1
2016-Dec-07 03:19N 47°48' W 004°17'  
2016-Dec-02 14:33N 47°48' W 004°17'6 5.9
2016-Dec-02 13:33N 47°42' W 004°16'9 8.7
2016-Dec-02 12:33N 47°33' W 004°13'2 2.4
2016-Dec-02 11:33N 47°31' W 004°15'4 3.7
2016-Dec-02 10:33N 47°29' W 004°11'1 1.5
2016-Dec-02 09:33N 47°27' W 004°11'3 2.7
2016-Dec-02 08:33N 47°30' W 004°10'4 3.5
2016-Dec-02 07:33N 47°30' W 004°05'3 2.8
2016-Dec-02 06:33N 47°28' W 004°08'3 2.1
2016-Dec-02 05:21N 47°29' W 004°12'1 1.9
2016-Dec-02 04:33N 47°30' W 004°10'2 2.4
2016-Dec-02 03:33N 47°27' W 004°11'3 2.7
2016-Dec-02 02:32N 47°30' W 004°11'3 3.4
2016-Dec-02 01:33N 47°30' W 004°06'2 2.3
2016-Dec-02 00:33N 47°28' W 004°08'1 1.2
2016-Dec-01 23:33N 47°28' W 004°09'2 2.0
2016-Dec-01 22:29N 47°29' W 004°12'3 2.8
2016-Dec-01 21:33N 47°30' W 004°08'2 2.3
2016-Dec-01 20:33N 47°29' W 004°06'1 0.1
2016-Dec-01 06:20N 47°30' W 004°06'18 1.0
2016-Nov-30 12:29N 47°46' W 004°19'28 4.4
2016-Nov-30 06:09N 47°30' W 004°53'2 2.4
2016-Nov-30 05:23N 47°31' W 004°55'  

Dump ship's entire track history